Time;durP1;ratioP1;P1;durP2;ratioP2;P2;SDS_P1;SDS_P2;PMS_P1;PMS_P2;Temp;Humidity;BMP_temperature;BMP_pressure;BME280_temperature;BME280_humidity;BME280_pressure;Samples;Min_cycle;Max_cycle;Signal;HPM_P1;HPM_P2
2023/09/22 00:01:44;;;;;;;44.80;41.80;;;;;;;19.59;100.00;100905.59;4979350;28;20051;-75
2023/09/22 00:04:11;;;;;;;40.45;37.85;;;;;;;19.40;100.00;100912.47;4978928;28;20077;-75
2023/09/22 00:06:38;;;;;;;37.17;34.47;;;;;;;19.15;100.00;100924.72;4981212;28;20047;-75
2023/09/22 00:09:07;;;;;;;39.00;36.20;;;;;;;19.50;100.00;100926.00;4978637;28;20054;-75
2023/09/22 00:11:35;;;;;;;40.03;37.33;;;;;;;19.12;100.00;100924.38;4979030;28;20057;-75
2023/09/22 00:14:03;;;;;;;38.72;36.00;;;;;;;19.07;100.00;100922.47;4979727;28;20460;-75
2023/09/22 00:16:34;;;;;;;40.00;37.33;;;;;;;19.04;100.00;100916.81;4980594;28;20125;-75
2023/09/22 00:19:05;;;;;;;44.90;42.05;;;;;;;19.20;100.00;100907.75;4979823;28;20050;-75
2023/09/22 00:21:32;;;;;;;39.10;36.30;;;;;;;19.18;100.00;100891.88;4976561;28;20525;-75
2023/09/22 00:23:59;;;;;;;38.03;35.33;;;;;;;19.20;100.00;100886.22;4983992;28;20377;-75
2023/09/22 00:26:26;;;;;;;39.22;36.53;;;;;;;19.16;100.00;100877.06;4981172;28;20436;-75
2023/09/22 00:28:53;;;;;;;36.85;34.35;;;;;;;19.12;100.00;100881.31;4983638;28;20144;-75
2023/09/22 00:31:20;;;;;;;40.95;37.97;;;;;;;18.29;100.00;100889.72;4981545;28;20056;-75
2023/09/22 00:33:48;;;;;;;42.22;38.45;;;;;;;18.19;100.00;100901.19;4977938;28;20500;-76
2023/09/22 00:36:16;;;;;;;41.88;38.78;;;;;;;18.39;100.00;100922.06;4971786;28;20050;-75
2023/09/22 00:38:43;;;;;;;40.53;37.42;;;;;;;18.45;100.00;100933.69;4977865;28;20046;-75
2023/09/22 00:41:10;;;;;;;36.80;34.00;;;;;;;18.47;100.00;100928.91;4976716;28;20714;-75
2023/09/22 00:43:37;;;;;;;38.53;35.60;;;;;;;18.73;100.00;100925.44;4978286;28;20290;-75
2023/09/22 00:46:04;;;;;;;38.03;35.03;;;;;;;18.84;100.00;100922.81;4986856;28;20062;-75
2023/09/22 00:48:35;;;;;;;34.67;32.08;;;;;;;18.57;100.00;100920.13;4975303;28;20141;-75
2023/09/22 00:51:03;;;;;;;37.00;34.30;;;;;;;18.50;100.00;100925.69;4974631;28;20043;-75
2023/09/22 00:53:34;;;;;;;36.47;33.72;;;;;;;18.64;100.00;100913.47;4974623;28;20149;-75
2023/09/22 00:56:02;;;;;;;37.78;34.72;;;;;;;18.20;100.00;100905.47;4974988;28;20101;-75
2023/09/22 00:58:30;;;;;;;33.92;31.33;;;;;;;17.80;100.00;100917.38;4981757;28;20048;-75
2023/09/22 01:00:58;;;;;;;32.88;30.38;;;;;;;17.79;100.00;100918.44;4982846;28;20088;-75
2023/09/22 01:03:26;;;;;;;33.65;31.02;;;;;;;17.89;100.00;100919.63;4979238;28;20050;-75
2023/09/22 01:05:53;;;;;;;35.63;33.03;;;;;;;18.03;100.00;100913.63;4980419;28;20050;-75
2023/09/22 01:08:24;;;;;;;36.17;33.58;;;;;;;18.14;100.00;100905.69;4979102;28;20137;-74
2023/09/22 01:10:50;;;;;;;34.17;31.60;;;;;;;17.48;100.00;100924.41;4981883;28;20054;-75
2023/09/22 01:13:17;;;;;;;33.00;30.40;;;;;;;17.87;100.00;100905.63;4983838;28;20058;-75
2023/09/22 01:15:44;;;;;;;32.63;30.13;;;;;;;17.81;100.00;100918.97;4977279;28;20049;-75
2023/09/22 01:18:13;;;;;;;32.85;30.38;;;;;;;17.71;100.00;100908.09;4981087;28;20050;-75
2023/09/22 01:20:41;;;;;;;36.28;33.58;;;;;;;17.84;100.00;100896.19;4977249;28;20109;-75
2023/09/22 01:23:12;;;;;;;35.78;33.28;;;;;;;17.92;100.00;100892.25;4979220;28;20058;-75
2023/09/22 01:25:39;;;;;;;36.63;33.92;;;;;;;16.92;100.00;100906.38;4983084;28;20508;-75
2023/09/22 01:28:06;;;;;;;35.30;32.63;;;;;;;17.48;100.00;100905.59;4982848;28;20061;-75
2023/09/22 01:30:33;;;;;;;40.42;37.55;;;;;;;17.36;100.00;100903.03;4981710;28;20153;-75
2023/09/22 01:33:03;;;;;;;37.05;34.35;;;;;;;17.61;100.00;100902.59;4983046;28;20058;-75
2023/09/22 01:35:32;;;;;;;32.55;30.15;;;;;;;17.54;100.00;100908.13;4979716;28;20058;-75
2023/09/22 01:38:06;;;;;;;40.10;37.30;;;;;;;17.54;100.00;100912.69;4982726;28;20051;-75
2023/09/22 01:40:35;;;;;;;44.03;40.92;;;;;;;17.26;100.00;100913.63;4983318;28;20051;-75
2023/09/22 01:43:02;;;;;;;36.10;33.50;;;;;;;17.18;100.00;100920.19;4981839;28;20046;-75
2023/09/22 01:45:28;;;;;;;36.13;33.33;;;;;;;16.88;100.00;100921.34;4982230;28;20528;-75
2023/09/22 01:47:55;;;;;;;37.70;34.80;;;;;;;17.00;100.00;100923.13;4974966;28;20468;-75
2023/09/22 01:50:22;;;;;;;37.58;34.78;;;;;;;17.25;100.00;100918.19;4977747;28;20058;-75
2023/09/22 01:52:49;;;;;;;40.78;37.88;;;;;;;17.15;100.00;100918.81;4984757;28;20053;-75
2023/09/22 01:55:16;;;;;;;38.75;35.95;;;;;;;17.07;100.00;100921.91;4983297;28;20057;-74
2023/09/22 01:57:48;;;;;;;41.17;38.08;;;;;;;17.20;100.00;100914.59;4978125;28;20054;-75
2023/09/22 02:00:18;;;;;;;36.93;34.03;;;;;;;17.14;100.00;100919.06;4985126;28;20039;-75
2023/09/22 02:02:46;;;;;;;43.90;40.80;;;;;;;17.09;100.00;100908.25;4985160;28;20315;-75
2023/09/22 02:05:14;;;;;;;39.45;36.65;;;;;;;17.13;100.00;100906.72;4977800;28;20059;-75
2023/09/22 02:07:42;;;;;;;39.75;36.65;;;;;;;16.29;100.00;100903.88;4984511;28;20062;-75
2023/09/22 02:10:11;;;;;;;38.53;35.53;;;;;;;16.60;100.00;100910.63;4982936;28;20051;-75
2023/09/22 02:12:38;;;;;;;37.90;34.90;;;;;;;16.66;100.00;100907.78;4984616;28;20057;-75
2023/09/22 02:15:09;;;;;;;38.45;35.45;;;;;;;16.47;100.00;100909.06;4983433;28;20062;-75
2023/09/22 02:17:36;;;;;;;61.03;36.28;;;;;;;16.61;100.00;100923.81;4982351;28;20050;-71
2023/09/22 02:20:07;;;;;;;36.42;33.63;;;;;;;16.70;100.00;100913.47;4985661;28;20061;-72
2023/09/22 02:22:35;;;;;;;34.97;32.28;;;;;;;16.71;100.00;100907.88;4983059;28;20058;-71
2023/09/22 02:25:02;;;;;;;38.30;35.40;;;;;;;16.57;100.00;100913.78;4983540;28;20506;-72
2023/09/22 02:27:29;;;;;;;38.92;36.13;;;;;;;16.64;100.00;100920.63;4983323;28;20046;-71
2023/09/22 02:29:56;;;;;;;33.92;31.27;;;;;;;16.44;100.00;100925.63;4981324;28;20054;-72
2023/09/22 02:32:26;;;;;;;34.17;31.52;;;;;;;16.64;100.00;100926.00;4980581;28;20054;-71
2023/09/22 02:34:54;;;;;;;35.75;33.05;;;;;;;16.63;100.00;100923.53;4972755;28;20050;-71
2023/09/22 02:37:20;;;;;;;32.45;29.85;;;;;;;16.71;100.00;100921.28;4977212;28;20050;-72
2023/09/22 02:39:47;;;;;;;39.53;36.28;;;;;;;16.72;100.00;100916.72;4984804;28;20046;-75
2023/09/22 02:42:15;;;;;;;39.25;36.45;;;;;;;16.59;100.00;100917.03;4986167;28;20050;-75
2023/09/22 02:44:42;;;;;;;48.28;44.67;;;;;;;16.23;100.00;100919.88;4980343;28;20480;-72
2023/09/22 02:47:09;;;;;;;36.05;33.15;;;;;;;16.14;100.00;100925.84;4978087;28;20054;-72
2023/09/22 02:49:37;;;;;;;36.40;33.50;;;;;;;16.00;100.00;100933.31;4976622;28;20439;-72
2023/09/22 02:52:04;;;;;;;34.00;31.15;;;;;;;16.18;100.00;100929.66;4977883;28;20043;-71
2023/09/22 02:54:32;;;;;;;36.22;33.42;;;;;;;16.15;100.00;100935.50;4978327;28;20050;-72
2023/09/22 02:56:59;;;;;;;33.75;31.15;;;;;;;16.35;100.00;100932.41;4980835;28;20054;-71
2023/09/22 02:59:26;;;;;;;37.80;35.08;;;;;;;16.34;100.00;100926.25;4979068;28;20053;-71
2023/09/22 03:01:53;;;;;;;40.58;37.28;;;;;;;16.26;100.00;100930.09;4977991;28;20047;-72
2023/09/22 03:04:20;;;;;;;37.20;33.95;;;;;;;16.10;100.00;100925.50;4979821;28;20496;-71
2023/09/22 03:06:49;;;;;;;37.88;34.88;;;;;;;15.81;100.00;100927.31;4976975;28;20491;-72
2023/09/22 03:09:16;;;;;;;41.63;38.42;;;;;;;15.77;100.00;100934.19;4980733;28;20602;-71
2023/09/22 03:11:43;;;;;;;40.45;37.25;;;;;;;15.39;100.00;100943.47;4982328;28;20065;-72
2023/09/22 03:14:10;;;;;;;43.35;40.03;;;;;;;15.63;100.00;100943.47;4984343;28;20501;-71
2023/09/22 03:16:37;;;;;;;38.58;35.58;;;;;;;15.94;100.00;100939.63;4987461;28;20069;-72
2023/09/22 03:19:04;;;;;;;40.28;37.17;;;;;;;16.19;100.00;100940.16;4982600;28;20046;-71
2023/09/22 03:21:31;;;;;;;37.40;34.50;;;;;;;16.19;100.00;100950.88;4980434;28;20082;-72
2023/09/22 03:23:59;;;;;;;41.65;38.47;;;;;;;16.24;100.00;100952.81;4984415;28;20133;-71
2023/09/22 03:26:26;;;;;;;39.25;36.08;;;;;;;16.07;100.00;100952.78;4981282;28;20065;-71
2023/09/22 03:28:53;;;;;;;43.80;40.50;;;;;;;16.06;100.00;100958.34;4983099;28;20436;-72
2023/09/22 03:31:20;;;;;;;46.80;43.30;;;;;;;16.00;100.00;100954.75;4981764;28;20436;-75
2023/09/22 03:33:47;;;;;;;38.47;35.58;;;;;;;15.79;100.00;100961.53;4980593;28;20050;-75
2023/09/22 03:36:14;;;;;;;41.35;38.35;;;;;;;16.08;100.00;100964.31;4976927;28;20061;-74
2023/09/22 03:38:46;;;;;;;39.50;36.60;;;;;;;16.08;100.00;100965.09;4985740;28;20050;-75
2023/09/22 03:41:16;;;;;;;37.53;34.67;;;;;;;16.06;100.00;100967.19;4982091;28;20046;-72
2023/09/22 03:43:43;;;;;;;35.70;33.00;;;;;;;15.36;100.00;100973.38;4972635;28;20117;-71
2023/09/22 03:46:10;;;;;;;40.47;37.58;;;;;;;15.53;100.00;100976.19;4983409;28;20054;-71
2023/09/22 03:48:37;;;;;;;37.08;34.20;;;;;;;15.49;100.00;100983.88;4982046;28;20050;-71
2023/09/22 03:51:04;;;;;;;35.60;32.70;;;;;;;15.40;100.00;100979.91;4982637;28;20129;-71
2023/09/22 03:53:31;;;;;;;40.30;36.95;;;;;;;15.45;100.00;100993.41;4983808;28;20405;-71
2023/09/22 03:55:58;;;;;;;37.60;34.80;;;;;;;15.34;100.00;100988.88;4980670;28;20046;-71
2023/09/22 03:58:26;;;;;;;39.58;36.78;;;;;;;15.76;100.00;100992.28;4981161;28;20097;-71
2023/09/22 04:01:05;;;;;;;33.28;30.98;;;;;;;15.76;100.00;100996.81;4980675;28;20051;-71
2023/09/22 04:03:31;;;;;;;29.20;27.20;;;;;;;15.96;100.00;100988.41;4981344;28;20054;-72
2023/09/22 04:05:59;;;;;;;28.90;26.63;;;;;;;15.84;100.00;100987.63;4956400;28;20049;-71
2023/09/22 04:08:26;;;;;;;28.40;26.40;;;;;;;15.76;100.00;100986.94;5020494;28;20053;-71
2023/09/22 04:10:53;;;;;;;28.08;25.98;;;;;;;15.57;100.00;100980.84;5007371;28;20042;-71
2023/09/22 04:13:19;;;;;;;25.10;23.15;;;;;;;15.67;100.00;100969.56;5004205;28;20053;-71
2023/09/22 04:15:48;;;;;;;25.73;23.92;;;;;;;15.50;100.00;100969.44;5015643;28;20438;-72
2023/09/22 04:18:15;;;;;;;25.50;23.60;;;;;;;15.26;100.00;100976.63;5009186;28;20148;-71
2023/09/22 04:20:51;;;;;;;26.85;24.85;;;;;;;15.05;100.00;100983.31;5007898;28;20045;-71
2023/09/22 04:23:18;;;;;;;26.50;24.60;;;;;;;15.47;100.00;100988.63;5007436;28;20064;-71
2023/09/22 04:25:47;;;;;;;26.85;24.88;;;;;;;15.79;100.00;100991.81;4660747;28;9999932;-71
2023/09/22 04:28:17;;;;;;;25.63;23.73;;;;;;;15.63;100.00;100994.34;4991693;28;20535;-71
2023/09/22 04:30:44;;;;;;;28.50;26.50;;;;;;;15.69;100.00;100998.81;4993197;28;20141;-71
2023/09/22 04:33:13;;;;;;;28.00;26.00;;;;;;;16.17;100.00;100993.16;5002035;28;20427;-70
2023/09/22 04:35:40;;;;;;;25.95;24.00;;;;;;;16.23;100.00;100989.53;4994462;28;20045;-70
2023/09/22 04:38:08;;;;;;;27.65;25.55;;;;;;;16.10;100.00;100986.31;4989644;28;20061;-71
2023/09/22 04:40:36;;;;;;;30.15;27.77;;;;;;;15.71;100.00;100996.72;4996667;28;20156;-71
2023/09/22 04:43:05;;;;;;;29.13;27.02;;;;;;;16.02;100.00;100990.97;4998889;28;20448;-72
2023/09/22 04:45:32;;;;;;;30.90;28.70;;;;;;;15.96;100.00;100986.56;4994962;28;20086;-70
2023/09/22 04:47:59;;;;;;;33.17;30.88;;;;;;;16.15;100.00;100979.19;4996334;28;20050;-71
2023/09/22 04:50:27;;;;;;;26.85;24.95;;;;;;;16.70;100.00;100981.34;4998004;28;20062;-71
2023/09/22 04:52:54;;;;;;;31.20;29.00;;;;;;;16.94;100.00;100983.94;4989892;28;20428;-71
2023/09/22 04:55:21;;;;;;;29.10;27.00;;;;;;;17.06;100.00;100997.28;5007330;28;20046;-71
2023/09/22 04:57:48;;;;;;;31.30;29.10;;;;;;;16.61;100.00;100990.00;4997219;28;20145;-71
2023/09/22 05:00:16;;;;;;;30.70;28.48;;;;;;;16.86;100.00;100995.06;5000593;28;20508;-71
2023/09/22 05:02:44;;;;;;;30.40;28.30;;;;;;;17.33;100.00;100989.41;5002890;28;20104;-71
2023/09/22 05:05:12;;;;;;;28.33;26.30;;;;;;;17.47;100.00;100985.34;5002452;28;20104;-70
2023/09/22 05:07:40;;;;;;;29.73;27.73;;;;;;;17.62;100.00;100995.53;5000935;28;20058;-71
2023/09/22 05:10:08;;;;;;;28.75;26.65;;;;;;;17.88;100.00;100991.34;4998376;28;20054;-71
2023/09/22 05:12:35;;;;;;;29.98;27.88;;;;;;;18.02;100.00;100989.13;5003590;28;20046;-71
2023/09/22 05:15:03;;;;;;;29.27;27.17;;;;;;;18.09;100.00;100989.75;5001405;28;20529;-71
2023/09/22 05:17:30;;;;;;;26.58;24.58;;;;;;;18.31;100.00;100987.88;5007010;28;20112;-71
2023/09/22 05:19:58;;;;;;;30.70;28.05;;;;;;;18.47;100.00;100996.13;4998264;28;20522;-71
2023/09/22 05:22:25;;;;;;;31.52;29.33;;;;;;;18.68;100.00;100978.34;5002108;28;20520;-71
2023/09/22 05:24:56;;;;;;;29.33;27.23;;;;;;;18.67;100.00;100974.84;5001933;28;20056;-70
2023/09/22 05:27:24;;;;;;;29.10;27.10;;;;;;;18.51;100.00;100979.22;5008231;28;20060;-71
2023/09/22 05:29:53;;;;;;;28.67;26.58;;;;;;;19.02;100.00;100981.66;5002753;28;20054;-72
2023/09/22 05:32:20;;;;;;;26.40;24.40;;;;;;;19.22;100.00;100978.31;5001091;28;20053;-71
2023/09/22 05:34:47;;;;;;;26.27;24.27;;;;;;;19.34;100.00;100973.56;5007878;28;20050;-71
2023/09/22 05:37:14;;;;;;;26.17;24.27;;;;;;;19.56;100.00;100981.53;4997779;28;20058;-71
2023/09/22 05:39:41;;;;;;;27.50;25.40;;;;;;;19.55;100.00;100985.31;5006278;28;20480;-71
2023/09/22 05:42:10;;;;;;;25.70;23.80;;;;;;;19.86;100.00;100980.94;5006403;28;20050;-71
2023/09/22 05:44:37;;;;;;;25.17;23.17;;;;;;;19.94;100.00;100986.91;5006766;28;20084;-71
2023/09/22 05:47:04;;;;;;;26.50;24.70;;;;;;;20.10;100.00;100985.91;5006959;28;20504;-71
2023/09/22 05:49:31;;;;;;;27.30;25.20;;;;;;;20.30;100.00;100988.72;5004868;28;20058;-71
2023/09/22 05:51:58;;;;;;;26.80;24.90;;;;;;;20.38;100.00;100994.66;5007998;28;20047;-71
2023/09/22 05:54:25;;;;;;;29.17;27.08;;;;;;;20.33;100.00;101001.66;5008109;28;20056;-71
2023/09/22 05:56:52;;;;;;;26.35;24.23;;;;;;;20.37;100.00;100996.53;5012364;28;20053;-71
2023/09/22 05:59:22;;;;;;;26.83;24.83;;;;;;;20.56;100.00;100989.59;5013221;28;20046;-71
2023/09/22 06:01:49;;;;;;;24.73;22.70;;;;;;;20.67;100.00;100995.06;5013118;28;20129;-71
2023/09/22 06:04:16;;;;;;;23.98;22.08;;;;;;;20.68;100.00;100996.66;5019660;28;20041;-71
2023/09/22 06:06:43;;;;;;;24.75;22.95;;;;;;;20.92;100.00;100989.69;5014395;28;20053;-71
2023/09/22 06:09:11;;;;;;;25.33;23.42;;;;;;;20.94;100.00;100990.25;5019137;28;20057;-72
2023/09/22 06:11:40;;;;;;;23.95;22.05;;;;;;;20.90;100.00;100988.31;5015038;28;20053;-71
2023/09/22 06:14:08;;;;;;;25.13;23.13;;;;;;;21.10;100.00;100987.53;4660609;28;10000007;-71
2023/09/22 06:16:37;;;;;;;23.63;21.83;;;;;;;21.09;100.00;100986.75;5001192;28;20710;-71
2023/09/22 06:19:04;;;;;;;24.95;23.15;;;;;;;21.27;100.00;100997.00;4999643;28;20068;-71
2023/09/22 06:21:32;;;;;;;26.05;24.25;;;;;;;21.34;100.00;100993.22;5000541;28;20175;-72
2023/09/22 06:23:59;;;;;;;24.67;22.77;;;;;;;21.23;100.00;101000.50;4995813;28;20059;-71
2023/09/22 06:26:25;;;;;;;24.00;22.30;;;;;;;21.41;100.00;101004.59;5003361;28;20502;-71
2023/09/22 06:28:52;;;;;;;23.98;22.17;;;;;;;21.47;100.00;101006.19;5003996;28;20461;-71
2023/09/22 06:31:19;;;;;;;23.50;21.70;;;;;;;21.48;100.00;101011.34;5007556;28;20045;-75
2023/09/22 06:33:49;;;;;;;22.23;20.52;;;;;;;21.54;100.00;101011.31;5002034;28;21302;-75
2023/09/22 06:36:17;;;;;;;23.40;21.80;;;;;;;21.53;100.00;101015.91;4996906;28;20451;-71
2023/09/22 06:38:44;;;;;;;23.25;21.55;;;;;;;21.19;100.00;101024.53;5003950;28;20419;-75
2023/09/22 06:41:17;;;;;;;24.27;22.58;;;;;;;21.49;100.00;101022.97;4996149;28;20118;-74
2023/09/22 06:43:44;;;;;;;25.13;23.10;;;;;;;21.92;100.00;101020.72;5003721;28;20050;-74
2023/09/22 06:46:11;;;;;;;24.60;23.00;;;;;;;22.24;100.00;101025.81;5004830;28;20108;-75
2023/09/22 06:48:38;;;;;;;24.25;22.65;;;;;;;22.44;100.00;101021.38;4996329;28;20333;-75
2023/09/22 06:51:17;;;;;;;26.33;23.73;;;;;;;22.51;100.00;101030.00;4997716;28;20401;-75
2023/09/22 06:53:46;;;;;;;22.20;20.50;;;;;;;22.92;100.00;101029.78;5001326;28;20446;-75
2023/09/22 06:56:13;;;;;;;22.10;20.40;;;;;;;23.16;100.00;101029.91;5004262;28;20144;-75
2023/09/22 06:58:41;;;;;;;23.17;21.48;;;;;;;23.38;100.00;101026.75;5000569;28;20046;-75
2023/09/22 07:01:10;;;;;;;24.02;22.23;;;;;;;23.55;100.00;101027.94;5003785;28;20097;-75
2023/09/22 07:03:37;;;;;;;23.95;22.15;;;;;;;24.14;100.00;101015.16;5003472;28;20054;-75
2023/09/22 07:06:05;;;;;;;25.92;23.67;;;;;;;24.39;100.00;101014.03;5003392;28;20045;-75
2023/09/22 07:08:35;;;;;;;25.00;23.20;;;;;;;24.55;100.00;101020.09;5007893;28;20061;-75
2023/09/22 07:11:03;;;;;;;23.40;21.70;;;;;;;24.58;100.00;101014.09;5005298;28;20053;-75
2023/09/22 07:13:30;;;;;;;24.38;22.65;;;;;;;24.76;100.00;101012.47;5000211;28;20077;-75
2023/09/22 07:15:57;;;;;;;22.92;21.33;;;;;;;24.81;100.00;101014.28;5003873;28;21250;-75
2023/09/22 07:18:26;;;;;;;25.13;23.23;;;;;;;25.06;100.00;101008.50;5004376;28;20132;-74
2023/09/22 07:20:53;;;;;;;23.58;21.88;;;;;;;25.47;100.00;101013.25;5005658;28;20529;-75
2023/09/22 07:23:20;;;;;;;22.45;20.85;;;;;;;25.74;100.00;101020.66;5002679;28;20050;-71
2023/09/22 07:25:58;;;;;;;23.25;21.52;;;;;;;25.94;100.00;101024.94;5006378;28;20050;-71
2023/09/22 07:28:26;;;;;;;22.23;20.63;;;;;;;25.96;100.00;101025.47;5002865;28;20060;-71
2023/09/22 07:30:53;;;;;;;21.45;19.95;;;;;;;26.02;100.00;101020.69;5008638;28;20050;-72
2023/09/22 07:33:20;;;;;;;23.50;21.90;;;;;;;25.76;100.00;101010.28;5001838;28;20042;-71
2023/09/22 07:35:48;;;;;;;23.92;22.35;;;;;;;26.11;100.00;101015.38;5001489;28;20054;-71
2023/09/22 07:38:16;;;;;;;24.85;23.35;;;;;;;26.03;100.00;101011.44;4996207;28;20050;-74
2023/09/22 07:40:43;;;;;;;26.23;24.55;;;;;;;26.04;100.00;101018.50;5000342;28;20060;-75
2023/09/22 07:43:12;;;;;;;28.40;26.10;;;;;;;26.30;100.00;101018.78;4994150;28;20046;-75
2023/09/22 07:45:39;;;;;;;25.30;23.67;;;;;;;25.97;100.00;101007.22;5001110;28;20050;-75
2023/09/22 07:48:06;;;;;;;24.80;23.10;;;;;;;26.39;100.00;101014.25;4996938;28;20486;-75
2023/09/22 07:50:34;;;;;;;22.75;21.15;;;;;;;26.81;100.00;101011.41;4996256;28;20052;-75
2023/09/22 07:53:02;;;;;;;24.08;22.38;;;;;;;26.98;100.00;101003.38;4998417;28;20050;-75
2023/09/22 07:55:30;;;;;;;25.23;23.52;;;;;;;26.11;100.00;101007.19;5000459;28;20049;-75
2023/09/22 07:57:57;;;;;;;24.52;22.83;;;;;;;26.81;100.00;101016.88;4997999;28;20073;-75
2023/09/22 08:00:26;;;;;;;24.77;22.98;;;;;;;27.22;100.00;101002.31;4999845;28;20120;-75
2023/09/22 08:02:53;;;;;;;23.90;22.17;;;;;;;27.46;100.00;101012.88;4995824;28;20331;-75
2023/09/22 08:05:20;;;;;;;24.08;22.33;;;;;;;26.88;100.00;101017.28;5000584;28;20046;-75
2023/09/22 08:07:49;;;;;;;23.45;21.85;;;;;;;27.23;100.00;101014.81;5002873;28;20049;-75
2023/09/22 08:10:17;;;;;;;25.67;23.88;;;;;;;26.88;100.00;101026.25;5004977;28;20057;-75
2023/09/22 08:12:44;;;;;;;25.98;24.27;;;;;;;26.35;100.00;101021.38;5002845;28;20042;-75
2023/09/22 08:15:11;;;;;;;26.70;24.90;;;;;;;26.33;100.00;101018.19;4999940;28;20045;-75
2023/09/22 08:17:41;;;;;;;25.25;23.55;;;;;;;26.14;100.00;101020.19;5002087;28;20056;-76
2023/09/22 08:20:12;;;;;;;23.63;22.02;;;;;;;25.82;100.00;101024.63;5005457;28;20503;-75
2023/09/22 08:22:39;;;;;;;26.40;24.70;;;;;;;25.86;100.00;101020.19;4998009;28;20484;-75
2023/09/22 08:25:09;;;;;;;25.38;23.67;;;;;;;25.98;100.00;101011.53;5005122;28;20100;-75
2023/09/22 08:27:36;;;;;;;23.75;22.20;;;;;;;26.23;100.00;101010.22;4999658;28;20475;-75
2023/09/22 08:30:09;;;;;;;23.83;22.23;;;;;;;26.43;100.00;101009.78;5000412;28;20050;-75
2023/09/22 08:32:39;;;;;;;23.75;22.15;;;;;;;26.77;100.00;101008.50;4999578;28;20050;-75
2023/09/22 08:35:08;;;;;;;23.60;22.00;;;;;;;27.14;100.00;101001.94;5002243;28;20108;-76
2023/09/22 08:37:36;;;;;;;26.10;24.42;;;;;;;26.81;100.00;101008.69;4995092;28;20064;-75
2023/09/22 08:40:09;;;;;;;25.45;23.75;;;;;;;26.71;100.00;101010.53;5001087;28;20066;-75
2023/09/22 08:42:37;;;;;;;25.48;23.77;;;;;;;26.86;100.00;101014.03;4997629;28;20078;-75
2023/09/22 08:45:06;;;;;;;23.30;21.80;;;;;;;27.16;100.00;101004.34;5000696;28;20054;-75
2023/09/22 08:47:39;;;;;;;25.90;23.92;;;;;;;27.19;100.00;101014.63;4999201;28;20583;-74
2023/09/22 08:50:09;;;;;;;;;;;;;;;27.01;100.00;101015.59;5000936;28;20046;-75
2023/09/22 08:52:37;;;;;;;25.42;23.73;;;;;;;26.65;100.00;101014.50;4998649;28;20031;-75
2023/09/22 08:55:11;;;;;;;25.73;24.02;;;;;;;27.59;100.00;101006.50;4999229;28;20435;-75
2023/09/22 08:57:40;;;;;;;27.55;25.65;;;;;;;27.08;100.00;101008.63;4998494;28;20413;-75
2023/09/22 09:00:12;;;;;;;24.90;23.27;;;;;;;27.10;100.00;101006.34;5000376;28;20108;-75
2023/09/22 09:02:40;;;;;;;22.58;20.98;;;;;;;26.73;100.00;101005.59;5001315;28;20069;-74
2023/09/22 09:05:21;;;;;;;24.38;22.77;;;;;;;27.22;100.00;100994.94;4995168;28;20050;-75
2023/09/22 09:07:48;;;;;;;23.63;21.92;;;;;;;28.14;100.00;100989.75;4992056;28;20690;-72
2023/09/22 09:10:29;;;;;;;22.33;20.42;;;;;;;27.28;100.00;100993.69;5003806;28;20050;-72
2023/09/22 09:12:56;;;;;;;23.63;22.02;;;;;;;27.61;100.00;100991.44;4999733;28;20052;-72
2023/09/22 09:15:27;;;;;;;26.00;24.08;;;;;;;27.93;100.00;100988.69;5001896;28;20052;-72
2023/09/22 09:18:04;;;;;;;23.90;22.20;;;;;;;27.85;100.00;100987.56;5001657;28;20042;-75
2023/09/22 09:20:34;;;;;;;24.10;22.40;;;;;;;28.21;100.00;100984.63;4995411;28;20046;-75
2023/09/22 09:23:12;;;;;;;25.05;23.33;;;;;;;27.90;100.00;100995.63;4996138;28;20049;-75
2023/09/22 09:25:42;;;;;;;24.52;22.92;;;;;;;28.30;100.00;100987.38;4991173;28;20124;-74
2023/09/22 09:28:08;;;;;;;25.08;23.38;;;;;;;28.54;100.00;100976.81;5001683;28;20045;-75
2023/09/22 09:30:35;;;;;;;24.70;23.00;;;;;;;28.37;100.00;100979.50;4999482;28;21042;-75
2023/09/22 09:33:10;;;;;;;25.10;23.50;;;;;;;27.74;100.00;100984.28;5000949;28;20514;-73
2023/09/22 09:35:41;;;;;;;27.45;25.65;;;;;;;26.76;100.00;100985.13;5004864;28;20046;-72
2023/09/22 09:38:09;;;;;;;28.35;26.40;;;;;;;28.26;100.00;100978.19;4984655;28;20050;-75
2023/09/22 09:40:38;;;;;;;27.25;25.25;;;;;;;27.97;100.00;100970.59;5001861;28;20136;-75
2023/09/22 09:43:11;;;;;;;26.33;24.52;;;;;;;28.45;100.00;100964.28;4997071;28;20051;-75
2023/09/22 09:45:43;;;;;;;24.83;23.13;;;;;;;28.15;100.00;100964.03;4997563;28;20467;-75
2023/09/22 09:48:16;;;;;;;24.60;22.90;;;;;;;28.15;100.00;100960.50;4995540;28;20579;-75
2023/09/22 09:50:47;;;;;;;26.92;25.02;;;;;;;30.32;100.00;100954.56;4997681;28;20058;-75
2023/09/22 09:53:21;;;;;;;27.65;25.75;;;;;;;29.84;100.00;100953.88;5002128;28;20507;-76
2023/09/22 09:55:49;;;;;;;25.13;23.42;;;;;;;31.55;100.00;100947.56;5001807;28;20116;-75
2023/09/22 09:58:19;;;;;;;25.10;23.30;;;;;;;30.64;100.00;100949.44;5000962;28;20061;-75
2023/09/22 10:00:46;;;;;;;26.90;25.10;;;;;;;31.23;100.00;100952.75;5003105;28;20507;-76
2023/09/22 10:03:14;;;;;;;27.98;26.17;;;;;;;31.98;100.00;100951.66;5000182;28;20054;-76
2023/09/22 10:05:43;;;;;;;28.42;26.63;;;;;;;31.05;100.00;100948.59;4997579;28;20050;-75
2023/09/22 10:08:13;;;;;;;24.83;23.13;;;;;;;30.72;100.00;100943.91;4994658;28;20062;-75
2023/09/22 10:10:41;;;;;;;23.95;22.35;;;;;;;30.36;100.00;100941.78;4998433;28;20057;-75
2023/09/22 10:13:08;;;;;;;26.38;23.83;;;;;;;31.02;100.00;100939.09;5003183;28;20189;-76
2023/09/22 10:15:53;;;;;;;25.13;23.38;;;;;;;31.16;100.00;100930.56;4996834;28;20069;-75
2023/09/22 10:18:20;;;;;;;25.42;23.73;;;;;;;32.41;100.00;100931.00;4994023;28;20046;-76
2023/09/22 10:20:48;;;;;;;25.00;23.00;;;;;;;29.93;100.00;100947.53;5001898;28;20048;-75
2023/09/22 10:23:22;;;;;;;25.23;23.42;;;;;;;30.26;100.00;100943.00;5005425;28;20038;-75
2023/09/22 10:26:17;;;;;;;26.95;25.05;;;;;;;32.15;100.00;100932.19;4999198;28;20764;-75
2023/09/22 10:28:44;;;;;;;26.45;24.55;;;;;;;29.71;100.00;100930.25;4997118;28;20112;-75
2023/09/22 10:31:11;;;;;;;24.45;22.75;;;;;;;30.63;100.00;100932.22;5004894;28;20056;-75
2023/09/22 10:33:38;;;;;;;24.25;22.55;;;;;;;30.71;100.00;100930.50;5006878;28;20053;-75
2023/09/22 10:36:07;;;;;;;25.17;23.38;;;;;;;30.03;100.00;100922.50;5004261;28;20412;-75
2023/09/22 10:38:54;;;;;;;23.55;21.95;;;;;;;31.69;100.00;100909.59;4999191;28;20126;-75
2023/09/22 10:41:21;;;;;;;25.33;23.60;;;;;;;30.53;100.00;100916.16;5000520;28;20046;-75
2023/09/22 10:43:58;;;;;;;28.67;26.67;;;;;;;33.03;89.68;100907.56;4994258;28;20057;-75
2023/09/22 10:46:26;;;;;;;28.35;26.35;;;;;;;31.81;96.03;100905.22;4998943;28;20108;-75
2023/09/22 10:48:53;;;;;;;27.52;24.73;;;;;;;33.61;82.44;100893.28;5000152;28;20487;-75
2023/09/22 10:51:22;;;;;;;25.13;23.30;;;;;;;31.94;88.72;100906.84;4998960;28;20443;-75
2023/09/22 10:53:59;;;;;;;24.35;22.55;;;;;;;31.22;99.73;100901.75;5000586;28;20054;-75
2023/09/22 10:56:26;;;;;;;24.27;22.42;;;;;;;32.04;90.86;100891.81;5004631;28;20100;-75
2023/09/22 10:58:54;;;;;;;24.73;22.92;;;;;;;33.09;81.85;100890.81;4999315;28;20057;-75
2023/09/22 11:01:22;;;;;;;27.30;24.67;;;;;;;32.65;87.59;100888.06;4996916;28;20073;-75
2023/09/22 11:03:53;;;;;;;23.25;21.45;;;;;;;31.64;100.00;100882.34;4999631;28;20192;-75
2023/09/22 11:06:21;;;;;;;24.45;22.55;;;;;;;32.97;91.63;100880.66;5002070;28;20045;-75
2023/09/22 11:08:50;;;;;;;23.63;21.83;;;;;;;33.48;81.99;100883.50;5002621;28;20074;-75